createdAt,value
2023-03-26T00:01:37.066Z,2.43
2023-03-26T00:04:06.809Z,2.50
2023-03-26T00:06:39.121Z,2.80
2023-03-26T00:09:09.276Z,2.87
2023-03-26T00:11:38.064Z,2.40
2023-03-26T00:14:08.048Z,2.60
2023-03-26T00:16:38.040Z,2.47
2023-03-26T00:19:06.786Z,2.77
2023-03-26T00:21:35.566Z,2.63
2023-03-26T00:24:06.468Z,3.80
2023-03-26T00:26:35.059Z,3.40
2023-03-26T00:29:04.234Z,2.93
2023-03-26T00:31:33.013Z,2.77
2023-03-26T00:34:04.088Z,3.30
2023-03-26T00:36:36.672Z,3.20
2023-03-26T00:39:06.327Z,3.10
2023-03-26T00:41:37.408Z,3.33
2023-03-26T00:44:06.260Z,3.13
2023-03-26T00:46:34.927Z,3.40
2023-03-26T00:49:05.120Z,3.83
2023-03-26T00:51:35.227Z,3.47
2023-03-26T00:54:04.001Z,3.40
2023-03-26T00:56:32.560Z,3.83
2023-03-26T00:59:01.613Z,3.43
2023-03-26T01:01:30.711Z,3.47
2023-03-26T01:04:08.620Z,3.60
2023-03-26T01:06:42.429Z,3.73
2023-03-26T01:09:16.164Z,4.33
2023-03-26T01:11:45.111Z,4.20
2023-03-26T01:14:14.674Z,4.70
2023-03-26T01:16:46.418Z,4.33
2023-03-26T01:19:17.754Z,4.83
2023-03-26T01:21:47.915Z,4.93
2023-03-26T01:24:19.104Z,4.80
2023-03-26T01:27:12.685Z,4.70
2023-03-26T01:29:44.085Z,5.13
2023-03-26T01:32:33.857Z,5.80
2023-03-26T01:35:12.529Z,5.17
2023-03-26T01:37:44.090Z,4.67
2023-03-26T01:40:18.427Z,4.53
2023-03-26T01:42:49.516Z,4.20
2023-03-26T01:45:19.237Z,4.00
2023-03-26T01:47:47.846Z,4.37
2023-03-26T01:50:16.512Z,4.17
2023-03-26T01:52:47.825Z,3.73
2023-03-26T01:55:18.853Z,3.83
2023-03-26T01:57:53.976Z,3.37
2023-03-26T02:00:25.104Z,3.30
2023-03-26T02:03:18.013Z,3.07
2023-03-26T02:05:52.678Z,2.90
2023-03-26T02:08:24.526Z,2.80
2023-03-26T02:10:56.670Z,3.00
2023-03-26T02:13:25.249Z,3.10
2023-03-26T02:15:58.132Z,3.03
2023-03-26T02:18:36.382Z,3.40
2023-03-26T02:21:07.492Z,2.60
2023-03-26T02:23:40.361Z,2.87
2023-03-26T02:26:11.930Z,3.03
2023-03-26T02:28:40.562Z,2.57
2023-03-26T02:31:10.999Z,2.83
2023-03-26T02:33:39.871Z,2.60
2023-03-26T02:36:12.952Z,2.40
2023-03-26T02:38:41.799Z,2.50
2023-03-26T02:41:11.954Z,2.50
2023-03-26T02:43:40.507Z,2.70
2023-03-26T02:46:09.159Z,2.43
2023-03-26T02:48:38.103Z,2.77
2023-03-26T02:51:07.018Z,2.23
2023-03-26T02:53:37.673Z,2.90
2023-03-26T02:56:07.337Z,2.60
2023-03-26T02:58:37.177Z,2.73
2023-03-26T03:01:06.300Z,2.40
2023-03-26T03:03:36.442Z,2.23
2023-03-26T03:06:05.983Z,2.63
2023-03-26T03:08:34.654Z,2.60
2023-03-26T03:11:04.374Z,2.57
2023-03-26T03:13:33.170Z,3.30
2023-03-26T03:16:03.646Z,3.13
2023-03-26T03:18:32.521Z,2.80
2023-03-26T03:21:01.472Z,3.33
2023-03-26T03:23:30.105Z,3.27
2023-03-26T03:25:59.225Z,2.80
2023-03-26T03:28:27.937Z,3.27
2023-03-26T03:30:59.347Z,2.93
2023-03-26T03:33:29.536Z,3.70
2023-03-26T03:35:59.764Z,3.00
2023-03-26T03:38:28.312Z,2.97
2023-03-26T03:40:56.790Z,3.40
2023-03-26T03:43:25.840Z,3.20
2023-03-26T03:45:54.619Z,3.67
2023-03-26T03:48:23.496Z,3.57
2023-03-26T03:50:54.334Z,3.47
2023-03-26T03:53:26.197Z,3.27
2023-03-26T03:55:55.476Z,2.90
2023-03-26T03:58:25.024Z,3.23
2023-03-26T04:00:54.029Z,2.90
2023-03-26T04:03:33.871Z,3.10
2023-03-26T04:06:07.417Z,2.83
2023-03-26T04:08:36.546Z,2.67
2023-03-26T04:11:05.862Z,2.33
2023-03-26T04:13:34.667Z,2.37
2023-03-26T04:16:03.511Z,2.47
2023-03-26T04:18:32.623Z,2.00
2023-03-26T04:21:03.386Z,2.10
2023-03-26T04:23:34.869Z,2.40
2023-03-26T04:26:06.653Z,2.50
2023-03-26T04:28:35.981Z,3.30
2023-03-26T04:31:04.931Z,2.90
2023-03-26T04:33:34.303Z,2.93
2023-03-26T04:36:04.028Z,2.67
2023-03-26T04:38:38.976Z,2.70
2023-03-26T04:41:08.758Z,3.47
2023-03-26T04:43:42.529Z,2.93
2023-03-26T04:46:12.102Z,2.90
2023-03-26T04:48:40.805Z,3.23
2023-03-26T04:51:10.279Z,2.87
2023-03-26T04:53:42.673Z,2.93
2023-03-26T04:56:14.931Z,3.20
2023-03-26T04:58:43.631Z,3.10
2023-03-26T05:01:12.357Z,2.93
2023-03-26T05:03:42.029Z,2.77
2023-03-26T05:06:11.548Z,2.70
2023-03-26T05:08:42.238Z,2.70
2023-03-26T05:11:12.070Z,2.20
2023-03-26T05:13:43.285Z,2.40
2023-03-26T05:16:12.511Z,1.93
2023-03-26T05:18:43.656Z,2.30
2023-03-26T05:21:12.224Z,2.63
2023-03-26T05:23:42.588Z,2.30
2023-03-26T05:26:11.456Z,2.67
2023-03-26T05:28:40.132Z,2.13
2023-03-26T05:31:10.201Z,2.03
2023-03-26T05:33:38.897Z,2.23
2023-03-26T05:36:09.816Z,2.20
2023-03-26T05:38:38.545Z,2.17
2023-03-26T05:41:09.492Z,2.40
2023-03-26T05:43:37.885Z,2.20
2023-03-26T05:46:07.469Z,2.17
2023-03-26T05:48:36.469Z,2.17
2023-03-26T05:51:05.488Z,2.23
2023-03-26T05:53:34.431Z,2.20
2023-03-26T05:56:03.522Z,2.77
2023-03-26T05:58:35.455Z,2.03
2023-03-26T06:01:06.265Z,1.97
2023-03-26T06:03:35.242Z,2.00
2023-03-26T06:06:07.902Z,2.00
2023-03-26T06:08:36.442Z,2.03
2023-03-26T06:11:08.282Z,2.17
2023-03-26T06:13:38.599Z,1.83
2023-03-26T06:16:08.024Z,1.97
2023-03-26T06:18:37.015Z,2.20
2023-03-26T06:21:05.825Z,2.20
2023-03-26T06:23:34.527Z,2.40
2023-03-26T06:26:03.613Z,2.30
2023-03-26T06:28:32.493Z,2.50
2023-03-26T06:31:03.536Z,1.87
2023-03-26T06:33:32.361Z,1.90
2023-03-26T06:36:04.125Z,2.10
2023-03-26T06:38:32.566Z,2.30
2023-03-26T06:41:04.811Z,1.80
2023-03-26T06:43:34.069Z,1.97
2023-03-26T06:46:04.671Z,1.90
2023-03-26T06:48:33.102Z,2.13
2023-03-26T06:51:02.167Z,2.10
2023-03-26T06:53:30.690Z,2.20
2023-03-26T06:56:00.133Z,1.90
2023-03-26T06:58:28.890Z,2.10
2023-03-26T07:00:57.932Z,1.70
2023-03-26T07:03:29.522Z,1.90
2023-03-26T07:06:00.640Z,2.63
2023-03-26T07:08:30.948Z,2.50
2023-03-26T07:11:00.651Z,1.90
2023-03-26T07:13:29.479Z,2.70
2023-03-26T07:15:58.304Z,2.20
2023-03-26T07:18:29.322Z,2.30
2023-03-26T07:20:58.307Z,2.37
2023-03-26T07:23:27.579Z,2.20
2023-03-26T07:25:57.211Z,2.40
2023-03-26T07:28:30.853Z,2.93
2023-03-26T07:31:06.731Z,2.37
2023-03-26T07:33:39.907Z,2.17
2023-03-26T07:36:14.919Z,2.17
2023-03-26T07:38:50.119Z,2.30
2023-03-26T07:41:20.952Z,1.93
2023-03-26T07:44:00.390Z,2.30
2023-03-26T07:46:31.834Z,2.30
2023-03-26T07:49:05.146Z,2.27
2023-03-26T07:51:34.845Z,2.23
2023-03-26T07:54:05.332Z,2.40
2023-03-26T07:56:36.515Z,2.40
2023-03-26T07:59:25.912Z,2.40
2023-03-26T08:02:01.538Z,2.30
2023-03-26T08:04:40.958Z,2.30
2023-03-26T08:07:13.104Z,2.40
2023-03-26T08:09:43.889Z,2.17
2023-03-26T08:12:16.522Z,2.17
2023-03-26T08:14:49.932Z,1.80
2023-03-26T08:17:21.012Z,2.38
2023-03-26T08:19:57.962Z,2.30
2023-03-26T08:22:28.367Z,2.00
